sensor_id;sensor_type;location;lat;lon;timestamp;P1;durP1;ratioP1;P2;durP2;ratioP2
45236;SDS011;30973;51.442;3.580;2023-04-01T00:02:22;11.90;;;3.38;;
45236;SDS011;30973;51.442;3.580;2023-04-01T00:04:49;21.45;;;4.43;;
45236;SDS011;30973;51.442;3.580;2023-04-01T00:07:15;24.73;;;4.05;;
45236;SDS011;30973;51.442;3.580;2023-04-01T00:09:42;21.27;;;4.03;;
45236;SDS011;30973;51.442;3.580;2023-04-01T00:12:09;16.05;;;3.85;;
45236;SDS011;30973;51.442;3.580;2023-04-01T00:14:35;14.13;;;3.65;;
45236;SDS011;30973;51.442;3.580;2023-04-01T00:17:03;16.88;;;3.85;;
45236;SDS011;30973;51.442;3.580;2023-04-01T00:19:30;17.60;;;4.50;;
45236;SDS011;30973;51.442;3.580;2023-04-01T00:21:58;17.88;;;4.15;;
45236;SDS011;30973;51.442;3.580;2023-04-01T00:24:24;14.88;;;3.50;;
45236;SDS011;30973;51.442;3.580;2023-04-01T00:26:51;15.82;;;4.45;;
45236;SDS011;30973;51.442;3.580;2023-04-01T00:29:18;14.93;;;4.35;;
45236;SDS011;30973;51.442;3.580;2023-04-01T00:31:44;15.63;;;4.63;;
45236;SDS011;30973;51.442;3.580;2023-04-01T00:34:12;18.55;;;4.45;;
45236;SDS011;30973;51.442;3.580;2023-04-01T00:36:38;16.13;;;4.30;;
45236;SDS011;30973;51.442;3.580;2023-04-01T00:39:05;15.05;;;3.88;;
45236;SDS011;30973;51.442;3.580;2023-04-01T00:41:32;12.07;;;3.50;;
45236;SDS011;30973;51.442;3.580;2023-04-01T00:44:11;14.18;;;4.07;;
45236;SDS011;30973;51.442;3.580;2023-04-01T00:46:40;10.38;;;3.25;;
45236;SDS011;30973;51.442;3.580;2023-04-01T00:49:07;9.65;;;3.47;;
45236;SDS011;30973;51.442;3.580;2023-04-01T00:51:34;7.45;;;2.92;;
45236;SDS011;30973;51.442;3.580;2023-04-01T00:54:04;13.52;;;3.45;;
45236;SDS011;30973;51.442;3.580;2023-04-01T00:56:32;9.95;;;3.08;;
45236;SDS011;30973;51.442;3.580;2023-04-01T00:59:02;16.15;;;3.72;;
45236;SDS011;30973;51.442;3.580;2023-04-01T01:01:29;9.13;;;3.13;;
45236;SDS011;30973;51.442;3.580;2023-04-01T01:03:57;10.27;;;2.90;;
45236;SDS011;30973;51.442;3.580;2023-04-01T01:14:32;10.60;;;1.92;;
45236;SDS011;30973;51.442;3.580;2023-04-01T01:17:03;6.63;;;1.75;;
45236;SDS011;30973;51.442;3.580;2023-04-01T01:24:42;5.38;;;1.50;;
45236;SDS011;30973;51.442;3.580;2023-04-01T01:27:16;6.80;;;2.08;;
45236;SDS011;30973;51.442;3.580;2023-04-01T01:37:34;8.30;;;1.70;;
45236;SDS011;30973;51.442;3.580;2023-04-01T01:40:03;4.57;;;1.50;;
45236;SDS011;30973;51.442;3.580;2023-04-01T01:42:32;6.30;;;1.80;;
45236;SDS011;30973;51.442;3.580;2023-04-01T01:45:01;7.55;;;1.30;;
45236;SDS011;30973;51.442;3.580;2023-04-01T01:47:29;5.85;;;1.50;;
45236;SDS011;30973;51.442;3.580;2023-04-01T01:49:56;4.65;;;1.05;;
45236;SDS011;30973;51.442;3.580;2023-04-01T01:52:23;2.53;;;1.00;;
45236;SDS011;30973;51.442;3.580;2023-04-01T01:54:54;6.53;;;1.40;;
45236;SDS011;30973;51.442;3.580;2023-04-01T01:57:25;5.40;;;1.33;;
45236;SDS011;30973;51.442;3.580;2023-04-01T01:59:58;7.18;;;2.85;;
45236;SDS011;30973;51.442;3.580;2023-04-01T02:02:27;4.43;;;1.48;;
45236;SDS011;30973;51.442;3.580;2023-04-01T02:04:57;2.95;;;1.20;;
45236;SDS011;30973;51.442;3.580;2023-04-01T02:07:26;2.83;;;1.15;;
45236;SDS011;30973;51.442;3.580;2023-04-01T02:09:54;6.75;;;1.52;;
45236;SDS011;30973;51.442;3.580;2023-04-01T02:12:21;5.57;;;1.60;;
45236;SDS011;30973;51.442;3.580;2023-04-01T02:17:22;9.50;;;2.03;;
45236;SDS011;30973;51.442;3.580;2023-04-01T02:20:01;3.72;;;1.20;;
45236;SDS011;30973;51.442;3.580;2023-04-01T02:22:34;3.55;;;1.40;;
45236;SDS011;30973;51.442;3.580;2023-04-01T02:25:06;7.90;;;1.58;;
45236;SDS011;30973;51.442;3.580;2023-04-01T02:27:33;4.55;;;1.40;;
45236;SDS011;30973;51.442;3.580;2023-04-01T02:30:00;4.97;;;1.60;;
45236;SDS011;30973;51.442;3.580;2023-04-01T02:32:27;5.68;;;1.60;;
45236;SDS011;30973;51.442;3.580;2023-04-01T02:34:54;5.85;;;1.67;;
45236;SDS011;30973;51.442;3.580;2023-04-01T02:37:21;5.03;;;1.48;;
45236;SDS011;30973;51.442;3.580;2023-04-01T02:39:47;4.95;;;1.40;;
45236;SDS011;30973;51.442;3.580;2023-04-01T02:42:14;6.63;;;1.70;;
45236;SDS011;30973;51.442;3.580;2023-04-01T02:44:41;6.18;;;1.38;;
45236;SDS011;30973;51.442;3.580;2023-04-01T02:47:08;6.10;;;1.70;;
45236;SDS011;30973;51.442;3.580;2023-04-01T02:49:34;6.88;;;1.85;;
45236;SDS011;30973;51.442;3.580;2023-04-01T02:52:01;6.53;;;1.73;;
45236;SDS011;30973;51.442;3.580;2023-04-01T02:54:28;7.95;;;3.03;;
45236;SDS011;30973;51.442;3.580;2023-04-01T02:56:54;6.40;;;1.55;;
45236;SDS011;30973;51.442;3.580;2023-04-01T02:59:21;8.30;;;2.00;;
45236;SDS011;30973;51.442;3.580;2023-04-01T03:01:47;5.63;;;1.83;;
45236;SDS011;30973;51.442;3.580;2023-04-01T03:04:15;6.72;;;1.80;;
45236;SDS011;30973;51.442;3.580;2023-04-01T03:06:42;5.95;;;1.83;;
45236;SDS011;30973;51.442;3.580;2023-04-01T03:09:09;6.22;;;2.33;;
45236;SDS011;30973;51.442;3.580;2023-04-01T03:11:35;7.63;;;2.35;;
45236;SDS011;30973;51.442;3.580;2023-04-01T03:14:02;6.82;;;2.20;;
45236;SDS011;30973;51.442;3.580;2023-04-01T03:16:29;8.63;;;2.10;;
45236;SDS011;30973;51.442;3.580;2023-04-01T03:18:56;6.90;;;2.33;;
45236;SDS011;30973;51.442;3.580;2023-04-01T03:21:25;10.73;;;2.38;;
45236;SDS011;30973;51.442;3.580;2023-04-01T03:23:52;6.80;;;1.67;;
45236;SDS011;30973;51.442;3.580;2023-04-01T03:26:18;8.18;;;1.83;;
45236;SDS011;30973;51.442;3.580;2023-04-01T03:28:46;5.70;;;2.05;;
45236;SDS011;30973;51.442;3.580;2023-04-01T03:31:12;5.68;;;1.77;;
45236;SDS011;30973;51.442;3.580;2023-04-01T03:33:46;7.15;;;1.90;;
45236;SDS011;30973;51.442;3.580;2023-04-01T03:36:13;5.82;;;2.00;;
45236;SDS011;30973;51.442;3.580;2023-04-01T03:38:40;4.78;;;1.73;;
45236;SDS011;30973;51.442;3.580;2023-04-01T03:41:07;6.72;;;1.75;;
45236;SDS011;30973;51.442;3.580;2023-04-01T03:43:33;5.20;;;1.63;;
45236;SDS011;30973;51.442;3.580;2023-04-01T03:46:00;5.40;;;1.77;;
45236;SDS011;30973;51.442;3.580;2023-04-01T03:48:28;6.32;;;2.53;;
45236;SDS011;30973;51.442;3.580;2023-04-01T03:50:54;7.13;;;1.80;;
45236;SDS011;30973;51.442;3.580;2023-04-01T03:53:22;8.27;;;1.98;;
45236;SDS011;30973;51.442;3.580;2023-04-01T03:55:55;6.97;;;1.50;;
45236;SDS011;30973;51.442;3.580;2023-04-01T03:58:22;6.03;;;1.67;;
45236;SDS011;30973;51.442;3.580;2023-04-01T04:00:50;7.47;;;1.67;;
45236;SDS011;30973;51.442;3.580;2023-04-01T04:03:16;4.75;;;1.23;;
45236;SDS011;30973;51.442;3.580;2023-04-01T04:05:49;4.95;;;1.15;;
45236;SDS011;30973;51.442;3.580;2023-04-01T04:08:17;8.45;;;1.85;;
45236;SDS011;30973;51.442;3.580;2023-04-01T04:10:43;6.50;;;1.63;;
45236;SDS011;30973;51.442;3.580;2023-04-01T04:13:10;4.78;;;1.17;;
45236;SDS011;30973;51.442;3.580;2023-04-01T04:15:44;5.18;;;1.08;;
45236;SDS011;30973;51.442;3.580;2023-04-01T04:18:10;2.10;;;0.90;;
45236;SDS011;30973;51.442;3.580;2023-04-01T04:20:42;4.47;;;1.40;;
45236;SDS011;30973;51.442;3.580;2023-04-01T04:23:09;5.43;;;1.45;;
45236;SDS011;30973;51.442;3.580;2023-04-01T04:25:36;4.15;;;0.98;;
45236;SDS011;30973;51.442;3.580;2023-04-01T04:28:02;4.07;;;1.33;;
45236;SDS011;30973;51.442;3.580;2023-04-01T04:30:29;2.63;;;1.02;;
45236;SDS011;30973;51.442;3.580;2023-04-01T04:32:55;4.05;;;0.90;;
45236;SDS011;30973;51.442;3.580;2023-04-01T04:35:22;3.53;;;1.05;;
45236;SDS011;30973;51.442;3.580;2023-04-01T04:37:50;2.95;;;0.80;;
45236;SDS011;30973;51.442;3.580;2023-04-01T04:40:17;4.72;;;1.08;;
45236;SDS011;30973;51.442;3.580;2023-04-01T04:42:44;3.60;;;1.05;;
45236;SDS011;30973;51.442;3.580;2023-04-01T04:45:13;4.07;;;0.93;;
45236;SDS011;30973;51.442;3.580;2023-04-01T04:47:49;2.67;;;0.70;;
45236;SDS011;30973;51.442;3.580;2023-04-01T04:50:16;3.92;;;1.17;;
45236;SDS011;30973;51.442;3.580;2023-04-01T04:52:43;5.57;;;1.27;;
45236;SDS011;30973;51.442;3.580;2023-04-01T04:55:10;5.35;;;1.20;;
45236;SDS011;30973;51.442;3.580;2023-04-01T04:57:37;4.00;;;1.08;;
45236;SDS011;30973;51.442;3.580;2023-04-01T05:00:04;2.50;;;0.90;;
45236;SDS011;30973;51.442;3.580;2023-04-01T05:02:47;1.92;;;0.77;;
45236;SDS011;30973;51.442;3.580;2023-04-01T05:05:14;3.58;;;1.40;;
45236;SDS011;30973;51.442;3.580;2023-04-01T05:07:41;4.47;;;1.10;;
45236;SDS011;30973;51.442;3.580;2023-04-01T05:10:08;4.22;;;1.30;;
45236;SDS011;30973;51.442;3.580;2023-04-01T05:12:34;4.38;;;0.93;;
45236;SDS011;30973;51.442;3.580;2023-04-01T05:15:05;3.60;;;0.70;;
45236;SDS011;30973;51.442;3.580;2023-04-01T05:17:33;4.13;;;0.85;;
45236;SDS011;30973;51.442;3.580;2023-04-01T05:20:01;3.15;;;0.80;;
45236;SDS011;30973;51.442;3.580;2023-04-01T05:22:28;6.13;;;1.00;;
45236;SDS011;30973;51.442;3.580;2023-04-01T05:24:56;4.60;;;1.08;;
45236;SDS011;30973;51.442;3.580;2023-04-01T05:27:22;2.78;;;0.93;;
45236;SDS011;30973;51.442;3.580;2023-04-01T05:29:49;6.82;;;0.90;;
45236;SDS011;30973;51.442;3.580;2023-04-01T05:32:36;2.20;;;0.80;;
45236;SDS011;30973;51.442;3.580;2023-04-01T05:35:03;6.20;;;1.20;;
45236;SDS011;30973;51.442;3.580;2023-04-01T05:37:30;1.80;;;1.00;;
45236;SDS011;30973;51.442;3.580;2023-04-01T05:39:56;6.20;;;0.95;;
45236;SDS011;30973;51.442;3.580;2023-04-01T05:42:25;5.03;;;1.20;;
45236;SDS011;30973;51.442;3.580;2023-04-01T05:44:52;4.60;;;1.02;;
45236;SDS011;30973;51.442;3.580;2023-04-01T05:47:47;2.85;;;0.90;;
45236;SDS011;30973;51.442;3.580;2023-04-01T05:50:14;4.82;;;1.30;;
45236;SDS011;30973;51.442;3.580;2023-04-01T05:52:41;1.58;;;1.00;;
45236;SDS011;30973;51.442;3.580;2023-04-01T05:55:08;5.70;;;1.65;;
45236;SDS011;30973;51.442;3.580;2023-04-01T05:57:35;7.60;;;1.55;;
45236;SDS011;30973;51.442;3.580;2023-04-01T06:00:03;2.38;;;0.90;;
45236;SDS011;30973;51.442;3.580;2023-04-01T06:02:37;5.28;;;1.50;;
45236;SDS011;30973;51.442;3.580;2023-04-01T06:05:26;5.28;;;1.33;;
45236;SDS011;30973;51.442;3.580;2023-04-01T06:08:01;6.45;;;1.70;;
45236;SDS011;30973;51.442;3.580;2023-04-01T06:10:37;9.00;;;1.13;;
45236;SDS011;30973;51.442;3.580;2023-04-01T06:16:01;8.30;;;1.48;;
45236;SDS011;30973;51.442;3.580;2023-04-01T06:18:40;5.68;;;1.10;;
45236;SDS011;30973;51.442;3.580;2023-04-01T06:24:00;4.60;;;1.30;;
45236;SDS011;30973;51.442;3.580;2023-04-01T06:31:50;4.88;;;1.17;;
45236;SDS011;30973;51.442;3.580;2023-04-01T06:40:12;4.65;;;1.00;;
45236;SDS011;30973;51.442;3.580;2023-04-01T06:54:09;5.22;;;1.10;;
45236;SDS011;30973;51.442;3.580;2023-04-01T06:56:58;4.90;;;1.42;;
45236;SDS011;30973;51.442;3.580;2023-04-01T06:59:30;9.85;;;1.80;;
45236;SDS011;30973;51.442;3.580;2023-04-01T07:02:03;4.82;;;1.40;;
45236;SDS011;30973;51.442;3.580;2023-04-01T07:04:35;4.45;;;1.77;;
45236;SDS011;30973;51.442;3.580;2023-04-01T07:07:14;2.60;;;1.15;;
45236;SDS011;30973;51.442;3.580;2023-04-01T07:09:53;6.97;;;1.20;;
45236;SDS011;30973;51.442;3.580;2023-04-01T07:12:51;4.45;;;1.30;;
45236;SDS011;30973;51.442;3.580;2023-04-01T07:15:28;4.18;;;1.50;;
45236;SDS011;30973;51.442;3.580;2023-04-01T07:17:59;4.72;;;1.20;;
45236;SDS011;30973;51.442;3.580;2023-04-01T07:20:30;4.65;;;1.50;;
45236;SDS011;30973;51.442;3.580;2023-04-01T07:22:59;3.72;;;1.10;;
45236;SDS011;30973;51.442;3.580;2023-04-01T07:26:06;5.28;;;1.23;;
45236;SDS011;30973;51.442;3.580;2023-04-01T07:28:57;4.47;;;1.23;;
45236;SDS011;30973;51.442;3.580;2023-04-01T07:31:40;3.20;;;0.98;;
45236;SDS011;30973;51.442;3.580;2023-04-01T07:34:27;3.22;;;1.50;;
45236;SDS011;30973;51.442;3.580;2023-04-01T07:47:55;3.95;;;1.42;;
45236;SDS011;30973;51.442;3.580;2023-04-01T07:50:29;6.93;;;1.60;;
45236;SDS011;30973;51.442;3.580;2023-04-01T07:55:48;5.38;;;1.42;;
45236;SDS011;30973;51.442;3.580;2023-04-01T08:03:32;4.93;;;1.48;;
45236;SDS011;30973;51.442;3.580;2023-04-01T08:18:06;3.65;;;1.50;;
45236;SDS011;30973;51.442;3.580;2023-04-01T08:20:57;3.88;;;1.17;;
45236;SDS011;30973;51.442;3.580;2023-04-01T08:23:31;3.38;;;1.42;;
45236;SDS011;30973;51.442;3.580;2023-04-01T08:28:38;4.63;;;1.30;;
45236;SDS011;30973;51.442;3.580;2023-04-01T08:33:37;5.40;;;1.80;;
45236;SDS011;30973;51.442;3.580;2023-04-01T08:36:12;5.80;;;1.17;;
45236;SDS011;30973;51.442;3.580;2023-04-01T08:38:49;5.25;;;1.20;;
45236;SDS011;30973;51.442;3.580;2023-04-01T08:46:45;6.93;;;1.27;;
45236;SDS011;30973;51.442;3.580;2023-04-01T08:49:20;4.38;;;1.10;;
45236;SDS011;30973;51.442;3.580;2023-04-01T09:00:13;5.93;;;1.27;;
45236;SDS011;30973;51.442;3.580;2023-04-01T09:03:13;3.88;;;1.15;;
45236;SDS011;30973;51.442;3.580;2023-04-01T09:08:24;4.32;;;1.38;;
45236;SDS011;30973;51.442;3.580;2023-04-01T09:19:17;4.97;;;1.30;;
45236;SDS011;30973;51.442;3.580;2023-04-01T09:27:18;7.00;;;1.58;;
45236;SDS011;30973;51.442;3.580;2023-04-01T09:35:21;5.75;;;1.23;;
45236;SDS011;30973;51.442;3.580;2023-04-01T09:37:52;6.18;;;1.58;;
45236;SDS011;30973;51.442;3.580;2023-04-01T09:40:31;3.77;;;0.97;;
45236;SDS011;30973;51.442;3.580;2023-04-01T09:48:12;7.95;;;1.05;;
45236;SDS011;30973;51.442;3.580;2023-04-01T09:53:28;4.10;;;0.90;;
45236;SDS011;30973;51.442;3.580;2023-04-01T10:12:23;4.70;;;0.88;;
45236;SDS011;30973;51.442;3.580;2023-04-01T10:17:26;2.88;;;0.90;;
45236;SDS011;30973;51.442;3.580;2023-04-01T10:22:44;3.58;;;0.80;;
45236;SDS011;30973;51.442;3.580;2023-04-01T10:25:18;2.33;;;0.95;;
45236;SDS011;30973;51.442;3.580;2023-04-01T10:41:44;4.55;;;1.13;;
45236;SDS011;30973;51.442;3.580;2023-04-01T10:44:50;2.53;;;1.00;;
45236;SDS011;30973;51.442;3.580;2023-04-01T10:47:48;2.30;;;0.88;;
45236;SDS011;30973;51.442;3.580;2023-04-01T10:50:30;3.30;;;1.00;;
45236;SDS011;30973;51.442;3.580;2023-04-01T11:18:31;3.72;;;1.10;;
45236;SDS011;30973;51.442;3.580;2023-04-01T11:21:22;4.75;;;0.95;;
45236;SDS011;30973;51.442;3.580;2023-04-01T11:24:03;2.70;;;1.00;;
45236;SDS011;30973;51.442;3.580;2023-04-01T11:26:57;3.30;;;1.08;;
45236;SDS011;30973;51.442;3.580;2023-04-01T11:29:56;4.20;;;0.90;;
45236;SDS011;30973;51.442;3.580;2023-04-01T11:35:20;3.95;;;0.90;;
45236;SDS011;30973;51.442;3.580;2023-04-01T11:37:54;3.53;;;0.90;;
45236;SDS011;30973;51.442;3.580;2023-04-01T11:55:19;2.00;;;0.82;;
45236;SDS011;30973;51.442;3.580;2023-04-01T11:57:51;2.47;;;0.75;;
45236;SDS011;30973;51.442;3.580;2023-04-01T12:05:36;3.97;;;1.23;;
45236;SDS011;30973;51.442;3.580;2023-04-01T12:08:13;4.35;;;1.20;;
45236;SDS011;30973;51.442;3.580;2023-04-01T12:10:48;4.60;;;1.10;;
45236;SDS011;30973;51.442;3.580;2023-04-01T12:13:28;3.53;;;1.15;;
45236;SDS011;30973;51.442;3.580;2023-04-01T12:26:25;5.90;;;1.30;;
45236;SDS011;30973;51.442;3.580;2023-04-01T12:29:16;3.88;;;0.85;;
45236;SDS011;30973;51.442;3.580;2023-04-01T12:34:49;4.50;;;0.93;;
45236;SDS011;30973;51.442;3.580;2023-04-01T12:40:31;4.15;;;0.90;;
45236;SDS011;30973;51.442;3.580;2023-04-01T12:43:11;5.60;;;1.95;;
45236;SDS011;30973;51.442;3.580;2023-04-01T12:56:07;4.45;;;1.95;;
45236;SDS011;30973;51.442;3.580;2023-04-01T13:06:31;4.80;;;0.95;;
45236;SDS011;30973;51.442;3.580;2023-04-01T13:12:00;3.47;;;1.17;;
45236;SDS011;30973;51.442;3.580;2023-04-01T13:30:43;7.13;;;2.20;;
45236;SDS011;30973;51.442;3.580;2023-04-01T13:33:17;6.38;;;1.60;;
45236;SDS011;30973;51.442;3.580;2023-04-01T13:38:42;5.82;;;1.25;;
45236;SDS011;30973;51.442;3.580;2023-04-01T13:54:28;6.05;;;1.63;;
45236;SDS011;30973;51.442;3.580;2023-04-01T13:57:12;4.63;;;1.35;;
45236;SDS011;30973;51.442;3.580;2023-04-01T14:05:09;3.42;;;1.02;;
45236;SDS011;30973;51.442;3.580;2023-04-01T14:17:50;2.15;;;1.42;;
45236;SDS011;30973;51.442;3.580;2023-04-01T14:20:27;3.47;;;1.40;;
45236;SDS011;30973;51.442;3.580;2023-04-01T14:30:37;6.30;;;1.20;;
45236;SDS011;30973;51.442;3.580;2023-04-01T14:35:38;5.28;;;0.90;;
45236;SDS011;30973;51.442;3.580;2023-04-01T14:40:49;4.60;;;1.30;;
45236;SDS011;30973;51.442;3.580;2023-04-01T14:43:28;2.38;;;1.08;;
45236;SDS011;30973;51.442;3.580;2023-04-01T14:48:37;4.05;;;1.25;;
45236;SDS011;30973;51.442;3.580;2023-04-01T14:51:28;4.15;;;1.73;;
45236;SDS011;30973;51.442;3.580;2023-04-01T14:59:08;4.90;;;1.58;;
45236;SDS011;30973;51.442;3.580;2023-04-01T15:01:37;2.80;;;1.27;;
45236;SDS011;30973;51.442;3.580;2023-04-01T15:11:48;4.55;;;1.20;;
45236;SDS011;30973;51.442;3.580;2023-04-01T15:19:29;4.60;;;1.88;;
45236;SDS011;30973;51.442;3.580;2023-04-01T15:22:03;4.38;;;2.08;;
45236;SDS011;30973;51.442;3.580;2023-04-01T15:24:43;5.10;;;2.53;;
45236;SDS011;30973;51.442;3.580;2023-04-01T15:35:10;8.80;;;3.55;;
45236;SDS011;30973;51.442;3.580;2023-04-01T15:45:12;7.05;;;3.42;;
45236;SDS011;30973;51.442;3.580;2023-04-01T15:47:45;7.88;;;3.53;;
45236;SDS011;30973;51.442;3.580;2023-04-01T15:50:26;6.75;;;2.72;;
45236;SDS011;30973;51.442;3.580;2023-04-01T15:53:11;6.90;;;2.42;;
45236;SDS011;30973;51.442;3.580;2023-04-01T15:55:45;5.22;;;1.80;;
45236;SDS011;30973;51.442;3.580;2023-04-01T16:10:56;4.03;;;1.73;;
45236;SDS011;30973;51.442;3.580;2023-04-01T16:21:19;6.90;;;3.50;;
45236;SDS011;30973;51.442;3.580;2023-04-01T16:24:02;4.78;;;2.65;;
45236;SDS011;30973;51.442;3.580;2023-04-01T16:26:36;8.50;;;2.88;;
45236;SDS011;30973;51.442;3.580;2023-04-01T16:29:12;6.10;;;2.85;;
45236;SDS011;30973;51.442;3.580;2023-04-01T16:34:20;7.38;;;2.85;;
45236;SDS011;30973;51.442;3.580;2023-04-01T16:36:54;7.10;;;2.63;;
45236;SDS011;30973;51.442;3.580;2023-04-01T16:44:24;7.72;;;3.85;;
45236;SDS011;30973;51.442;3.580;2023-04-01T16:46:52;7.35;;;2.97;;
45236;SDS011;30973;51.442;3.580;2023-04-01T16:57:14;11.65;;;3.08;;
45236;SDS011;30973;51.442;3.580;2023-04-01T17:02:20;7.57;;;3.20;;
45236;SDS011;30973;51.442;3.580;2023-04-01T17:05:05;12.60;;;3.35;;
45236;SDS011;30973;51.442;3.580;2023-04-01T17:07:48;16.02;;;7.97;;
45236;SDS011;30973;51.442;3.580;2023-04-01T17:13:06;8.65;;;3.10;;
45236;SDS011;30973;51.442;3.580;2023-04-01T17:23:11;10.88;;;3.60;;
45236;SDS011;30973;51.442;3.580;2023-04-01T17:41:25;13.18;;;4.50;;
45236;SDS011;30973;51.442;3.580;2023-04-01T17:49:33;10.98;;;3.53;;
45236;SDS011;30973;51.442;3.580;2023-04-01T17:54:34;10.32;;;3.10;;
45236;SDS011;30973;51.442;3.580;2023-04-01T17:59:53;12.18;;;3.47;;
45236;SDS011;30973;51.442;3.580;2023-04-01T18:02:44;9.90;;;3.55;;
45236;SDS011;30973;51.442;3.580;2023-04-01T18:10:29;12.27;;;3.15;;
45236;SDS011;30973;51.442;3.580;2023-04-01T18:15:46;14.32;;;3.85;;
45236;SDS011;30973;51.442;3.580;2023-04-01T18:26:13;13.80;;;3.00;;
45236;SDS011;30973;51.442;3.580;2023-04-01T18:31:37;15.98;;;3.58;;
45236;SDS011;30973;51.442;3.580;2023-04-01T18:36:44;17.40;;;3.70;;
45236;SDS011;30973;51.442;3.580;2023-04-01T18:39:37;19.58;;;3.67;;
45236;SDS011;30973;51.442;3.580;2023-04-01T18:47:33;15.57;;;4.05;;
45236;SDS011;30973;51.442;3.580;2023-04-01T18:52:43;15.88;;;3.10;;
45236;SDS011;30973;51.442;3.580;2023-04-01T18:55:24;10.23;;;3.40;;
45236;SDS011;30973;51.442;3.580;2023-04-01T18:57:58;12.75;;;2.95;;
45236;SDS011;30973;51.442;3.580;2023-04-01T19:00:33;11.25;;;3.03;;
45236;SDS011;30973;51.442;3.580;2023-04-01T19:03:10;16.58;;;3.78;;
45236;SDS011;30973;51.442;3.580;2023-04-01T19:05:38;12.55;;;3.30;;
45236;SDS011;30973;51.442;3.580;2023-04-01T19:19:00;13.20;;;4.40;;
45236;SDS011;30973;51.442;3.580;2023-04-01T19:26:32;15.00;;;4.15;;
45236;SDS011;30973;51.442;3.580;2023-04-01T19:30:07;17.52;;;4.82;;
45236;SDS011;30973;51.442;3.580;2023-04-01T19:32:20;21.90;;;4.88;;
45236;SDS011;30973;51.442;3.580;2023-04-01T19:34:53;13.35;;;4.82;;
45236;SDS011;30973;51.442;3.580;2023-04-01T19:42:47;19.00;;;5.47;;
45236;SDS011;30973;51.442;3.580;2023-04-01T19:45:34;16.83;;;5.60;;
45236;SDS011;30973;51.442;3.580;2023-04-01T19:50:55;14.55;;;5.07;;
45236;SDS011;30973;51.442;3.580;2023-04-01T19:53:37;17.65;;;5.47;;
45236;SDS011;30973;51.442;3.580;2023-04-01T19:58:41;19.17;;;6.35;;
45236;SDS011;30973;51.442;3.580;2023-04-01T20:01:12;18.30;;;6.18;;
45236;SDS011;30973;51.442;3.580;2023-04-01T20:03:54;14.32;;;6.30;;
45236;SDS011;30973;51.442;3.580;2023-04-01T20:12:15;15.55;;;5.90;;
45236;SDS011;30973;51.442;3.580;2023-04-01T20:14:54;20.08;;;6.85;;
45236;SDS011;30973;51.442;3.580;2023-04-01T20:17:26;18.30;;;6.90;;
45236;SDS011;30973;51.442;3.580;2023-04-01T20:19:58;18.98;;;7.68;;
45236;SDS011;30973;51.442;3.580;2023-04-01T20:22:37;21.42;;;6.20;;
45236;SDS011;30973;51.442;3.580;2023-04-01T20:25:24;16.48;;;7.55;;
45236;SDS011;30973;51.442;3.580;2023-04-01T20:28:00;18.50;;;5.97;;
45236;SDS011;30973;51.442;3.580;2023-04-01T20:30:33;18.38;;;6.72;;
45236;SDS011;30973;51.442;3.580;2023-04-01T20:35:39;21.88;;;6.68;;
45236;SDS011;30973;51.442;3.580;2023-04-01T20:40:41;20.98;;;6.00;;
45236;SDS011;30973;51.442;3.580;2023-04-01T20:45:46;14.50;;;6.47;;
45236;SDS011;30973;51.442;3.580;2023-04-01T20:50:50;19.65;;;6.38;;
45236;SDS011;30973;51.442;3.580;2023-04-01T20:53:20;15.30;;;7.13;;
45236;SDS011;30973;51.442;3.580;2023-04-01T21:14:24;24.77;;;6.93;;
45236;SDS011;30973;51.442;3.580;2023-04-01T21:16:52;15.93;;;6.35;;
45236;SDS011;30973;51.442;3.580;2023-04-01T21:27:20;15.93;;;5.80;;
45236;SDS011;30973;51.442;3.580;2023-04-01T21:37:49;19.85;;;6.07;;
45236;SDS011;30973;51.442;3.580;2023-04-01T22:14:10;11.85;;;6.00;;
45236;SDS011;30973;51.442;3.580;2023-04-01T22:16:43;15.15;;;5.30;;
45236;SDS011;30973;51.442;3.580;2023-04-01T22:19:17;14.10;;;6.13;;
45236;SDS011;30973;51.442;3.580;2023-04-01T22:22:00;17.10;;;6.45;;
45236;SDS011;30973;51.442;3.580;2023-04-01T22:26:59;19.17;;;6.63;;
45236;SDS011;30973;51.442;3.580;2023-04-01T22:31:55;16.58;;;5.93;;
45236;SDS011;30973;51.442;3.580;2023-04-01T22:42:14;17.98;;;7.22;;
45236;SDS011;30973;51.442;3.580;2023-04-01T22:49:59;13.02;;;7.65;;
45236;SDS011;30973;51.442;3.580;2023-04-01T22:52:39;12.93;;;6.93;;
45236;SDS011;30973;51.442;3.580;2023-04-01T22:58:04;12.93;;;7.50;;
45236;SDS011;30973;51.442;3.580;2023-04-01T23:05:36;12.48;;;8.82;;
45236;SDS011;30973;51.442;3.580;2023-04-01T23:10:58;15.52;;;10.50;;
45236;SDS011;30973;51.442;3.580;2023-04-01T23:13:29;13.45;;;10.27;;
45236;SDS011;30973;51.442;3.580;2023-04-01T23:15:58;13.77;;;10.45;;
45236;SDS011;30973;51.442;3.580;2023-04-01T23:18:27;15.25;;;9.63;;
45236;SDS011;30973;51.442;3.580;2023-04-01T23:31:29;13.95;;;10.63;;
45236;SDS011;30973;51.442;3.580;2023-04-01T23:33:56;14.25;;;11.43;;
45236;SDS011;30973;51.442;3.580;2023-04-01T23:36:23;14.73;;;11.93;;
45236;SDS011;30973;51.442;3.580;2023-04-01T23:38:50;19.70;;;14.10;;
45236;SDS011;30973;51.442;3.580;2023-04-01T23:41:18;16.60;;;12.98;;
45236;SDS011;30973;51.442;3.580;2023-04-01T23:43:48;18.23;;;13.05;;
45236;SDS011;30973;51.442;3.580;2023-04-01T23:46:17;18.35;;;14.00;;
45236;SDS011;30973;51.442;3.580;2023-04-01T23:48:44;17.10;;;13.30;;
45236;SDS011;30973;51.442;3.580;2023-04-01T23:51:14;18.33;;;13.07;;
45236;SDS011;30973;51.442;3.580;2023-04-01T23:53:45;18.40;;;12.82;;
45236;SDS011;30973;51.442;3.580;2023-04-01T23:56:12;18.95;;;13.40;;
45236;SDS011;30973;51.442;3.580;2023-04-01T23:58:44;16.08;;;11.63;;
